Time;durP1;ratioP1;P1;durP2;ratioP2;P2;SDS_P1;SDS_P2;PMS_P1;PMS_P2;Temp;Humidity;BMP_temperature;BMP_pressure;BME280_temperature;BME280_humidity;BME280_pressure;Samples;Min_cycle;Max_cycle;Signal;HPM_P1;HPM_P2
2022/09/18 00:01:11;;;;;;;18.13;16.93;;;11.00;86.80;;;;;;5064969;28;20458;-70
2022/09/18 00:03:40;;;;;;;18.10;17.10;;;11.00;86.80;;;;;;5063817;28;20816;-70
2022/09/18 00:06:09;;;;;;;17.87;16.70;;;11.10;86.20;;;;;;5063424;28;20465;-70
2022/09/18 00:08:37;;;;;;;16.80;15.97;;;11.00;86.40;;;;;;5069147;28;20474;-70
2022/09/18 00:11:05;;;;;;;18.77;17.77;;;10.90;87.00;;;;;;5066823;28;20802;-72
2022/09/18 00:13:31;;;;;;;18.27;17.23;;;11.00;86.80;;;;;;5061929;28;20800;-70
2022/09/18 00:15:58;;;;;;;18.20;17.20;;;11.00;86.60;;;;;;5073761;28;20467;-70
2022/09/18 00:18:25;;;;;;;18.30;17.17;;;11.00;86.60;;;;;;5075972;28;20546;-71
2022/09/18 00:20:54;;;;;;;17.43;16.57;;;10.90;87.00;;;;;;5068002;28;20470;-70
2022/09/18 00:23:21;;;;;;;16.93;16.13;;;11.00;86.80;;;;;;5066947;28;20477;-70
2022/09/18 00:25:47;;;;;;;17.40;16.37;;;11.00;87.00;;;;;;5066739;28;20496;-70
2022/09/18 00:28:14;;;;;;;16.90;16.07;;;11.00;87.10;;;;;;5065703;28;20464;-71
2022/09/18 00:30:42;;;;;;;18.33;17.23;;;11.00;87.00;;;;;;5063096;28;20461;-71
2022/09/18 00:33:09;;;;;;;18.27;17.47;;;11.00;87.00;;;;;;5070630;28;20496;-70
2022/09/18 00:35:41;;;;;;;18.67;17.57;;;11.00;86.60;;;;;;5064491;28;20465;-70
2022/09/18 00:38:10;;;;;;;18.13;17.13;;;11.00;87.20;;;;;;5062915;28;20470;-70
2022/09/18 00:40:36;;;;;;;16.17;15.27;;;11.00;87.40;;;;;;5060450;28;20556;-70
2022/09/18 00:43:17;;;;;;;17.53;16.50;;;11.00;87.60;;;;;;5066959;28;20469;-70
2022/09/18 00:45:49;;;;;;;19.53;17.93;;;11.00;87.20;;;;;;5066984;28;20460;-69
2022/09/18 00:48:15;;;;;;;18.70;17.53;;;11.00;87.30;;;;;;5068343;28;20853;-70
2022/09/18 00:50:42;;;;;;;18.30;17.03;;;11.00;87.70;;;;;;5069135;28;20461;-72
2022/09/18 00:53:11;;;;;;;18.07;17.00;;;11.00;87.40;;;;;;5066480;28;20478;-70
2022/09/18 00:55:38;;;;;;;18.43;17.43;;;11.00;87.20;;;;;;5068358;28;20467;-70
2022/09/18 00:58:06;;;;;;;18.60;17.60;;;11.00;87.30;;;;;;5065065;28;20460;-70
2022/09/18 01:00:33;;;;;;;19.20;18.10;;;11.10;86.80;;;;;;5067723;28;20493;-70
2022/09/18 01:03:01;;;;;;;18.30;17.40;;;11.00;86.60;;;;;;5065934;28;20499;-70
2022/09/18 01:05:42;;;;;;;18.77;17.77;;;11.10;86.30;;;;;;5067847;28;20465;-70
2022/09/18 01:08:23;;;;;;;19.90;18.80;;;11.00;86.50;;;;;;5066392;28;20481;-71
2022/09/18 01:11:04;;;;;;;19.33;18.40;;;11.00;86.50;;;;;;5065591;28;20460;-70
2022/09/18 01:13:38;;;;;;;19.47;18.20;;;11.00;86.20;;;;;;5064251;28;20484;-70
2022/09/18 01:16:12;;;;;;;19.87;18.20;;;11.10;86.10;;;;;;5057299;28;20479;-70
2022/09/18 01:18:46;;;;;;;19.20;17.80;;;11.00;86.10;;;;;;5069060;28;20819;-71
2022/09/18 01:21:14;;;;;;;17.97;17.03;;;11.10;86.40;;;;;;5064633;28;21050;-74
2022/09/18 01:24:27;;;;;;;18.70;17.50;;;11.10;86.40;;;;;;5079928;28;20866;-70
2022/09/18 01:26:58;;;;;;;17.70;16.90;;;11.10;86.20;;;;;;5065303;28;20857;-70
2022/09/18 01:29:44;;;;;;;18.50;17.50;;;11.00;86.10;;;;;;5061308;28;20461;-71
2022/09/18 01:32:20;;;;;;;19.20;18.10;;;11.10;85.30;;;;;;5081475;28;21002;-70
2022/09/18 01:34:54;;;;;;;19.33;18.30;;;11.10;85.40;;;;;;5060430;28;20461;-70
2022/09/18 01:37:28;;;;;;;20.70;19.50;;;11.10;84.80;;;;;;5065057;28;20951;-70
2022/09/18 01:40:01;;;;;;;20.50;19.10;;;11.00;84.40;;;;;;5066681;28;20460;-70
2022/09/18 01:42:30;;;;;;;20.67;19.47;;;11.10;83.80;;;;;;5067786;28;20473;-70
2022/09/18 01:45:04;;;;;;;20.13;19.13;;;11.10;83.80;;;;;;5063477;28;20465;-70
2022/09/18 01:47:37;;;;;;;19.63;18.73;;;11.00;84.20;;;;;;5065419;28;20456;-70
2022/09/18 01:50:07;;;;;;;19.93;18.90;;;11.10;84.60;;;;;;5065767;28;20469;-70
2022/09/18 01:52:39;;;;;;;19.73;18.63;;;11.00;84.60;;;;;;5066535;28;21007;-70
2022/09/18 01:55:13;;;;;;;19.47;18.30;;;11.00;85.20;;;;;;5066607;28;20470;-68
2022/09/18 01:57:48;;;;;;;18.97;17.97;;;11.00;85.30;;;;;;5068136;28;20451;-68
2022/09/18 02:00:16;;;;;;;19.97;18.87;;;11.00;85.90;;;;;;5059341;28;20450;-70
2022/09/18 02:02:47;;;;;;;20.60;19.20;;;11.00;85.60;;;;;;5071133;28;20466;-70
2022/09/18 02:05:20;;;;;;;21.27;19.63;;;11.00;85.40;;;;;;5064970;28;20468;-70
2022/09/18 02:07:52;;;;;;;20.10;19.20;;;11.00;85.40;;;;;;5066910;28;20475;-70
2022/09/18 02:10:22;;;;;;;19.90;18.90;;;11.00;85.50;;;;;;5065697;28;20450;-70
2022/09/18 02:12:51;;;;;;;20.90;19.77;;;10.90;86.30;;;;;;5075545;28;20967;-70
2022/09/18 02:15:22;;;;;;;20.20;19.00;;;10.90;86.40;;;;;;5068652;28;20465;-70
2022/09/18 02:17:54;;;;;;;19.50;18.20;;;10.90;86.30;;;;;;5067287;28;20516;-70
2022/09/18 02:20:24;;;;;;;20.40;19.10;;;11.00;86.00;;;;;;5068734;28;20461;-70
2022/09/18 02:22:54;;;;;;;20.37;19.27;;;11.00;85.90;;;;;;5068987;28;20463;-70
2022/09/18 02:25:25;;;;;;;20.33;19.20;;;11.00;85.90;;;;;;5067447;28;20454;-68
2022/09/18 02:27:54;;;;;;;20.43;19.23;;;10.90;86.20;;;;;;5069048;28;20458;-68
2022/09/18 02:30:23;;;;;;;20.13;19.13;;;11.00;86.50;;;;;;5059248;28;20453;-68
2022/09/18 02:32:54;;;;;;;18.70;17.70;;;10.90;86.80;;;;;;5068341;28;20487;-68
2022/09/18 02:35:23;;;;;;;19.80;18.87;;;11.00;86.80;;;;;;5065816;28;20516;-68
2022/09/18 02:37:58;;;;;;;20.33;19.30;;;11.00;86.60;;;;;;5063448;28;20477;-68
2022/09/18 02:40:37;;;;;;;18.00;16.90;;;11.00;86.80;;;;;;5065940;28;20457;-70
2022/09/18 02:43:18;;;;;;;17.70;16.80;;;11.10;87.00;;;;;;5057037;28;20526;-71
2022/09/18 02:45:58;;;;;;;18.43;17.37;;;11.10;87.00;;;;;;5065389;28;20973;-70
2022/09/18 02:48:46;;;;;;;17.37;16.40;;;11.00;87.50;;;;;;5058683;28;20970;-68
2022/09/18 02:51:21;;;;;;;17.80;16.70;;;11.10;87.60;;;;;;5063187;28;20468;-68
2022/09/18 02:53:56;;;;;;;16.70;15.90;;;11.20;87.50;;;;;;5062449;28;20477;-68
2022/09/18 02:56:29;;;;;;;17.27;16.33;;;11.10;87.90;;;;;;5067430;28;20460;-68
2022/09/18 02:59:02;;;;;;;17.43;16.40;;;11.00;88.20;;;;;;5063017;28;20453;-68
2022/09/18 03:01:32;;;;;;;17.57;16.50;;;11.00;88.20;;;;;;5074464;28;20459;-68
2022/09/18 03:04:03;;;;;;;16.33;15.63;;;11.00;88.30;;;;;;5064814;28;20502;-69
2022/09/18 03:06:30;;;;;;;19.50;18.50;;;11.00;88.20;;;;;;5067897;28;20951;-68
2022/09/18 03:08:57;;;;;;;16.57;15.47;;;10.90;88.70;;;;;;5066674;28;20479;-68
2022/09/18 03:11:23;;;;;;;17.63;16.83;;;11.00;88.80;;;;;;5062706;28;20522;-68
2022/09/18 03:13:50;;;;;;;17.20;16.07;;;10.90;89.00;;;;;;5065083;28;20488;-69
2022/09/18 03:16:20;;;;;;;16.73;15.53;;;10.90;89.40;;;;;;5074045;28;20454;-69
2022/09/18 03:18:48;;;;;;;15.47;14.47;;;10.80;89.80;;;;;;5066631;28;20464;-68
2022/09/18 03:21:15;;;;;;;14.87;14.13;;;10.90;89.50;;;;;;5065181;28;20477;-68
2022/09/18 03:23:42;;;;;;;15.70;14.80;;;10.90;89.70;;;;;;5064743;28;20474;-68
2022/09/18 03:26:09;;;;;;;15.70;14.97;;;10.90;89.50;;;;;;5062985;28;20500;-68
2022/09/18 03:28:36;;;;;;;16.03;15.30;;;10.80;89.80;;;;;;5066769;28;20454;-68
2022/09/18 03:31:03;;;;;;;15.93;15.23;;;10.80;89.90;;;;;;5063933;28;20804;-68
2022/09/18 03:33:30;;;;;;;16.33;15.23;;;10.80;89.90;;;;;;5065424;28;20548;-68
2022/09/18 03:35:58;;;;;;;16.33;15.43;;;10.80;89.70;;;;;;5066170;28;20465;-68
2022/09/18 03:38:25;;;;;;;15.13;14.33;;;10.80;90.00;;;;;;5063220;28;20460;-68
2022/09/18 03:40:51;;;;;;;16.53;15.43;;;10.80;90.20;;;;;;5063204;28;20456;-69
2022/09/18 03:43:18;;;;;;;16.83;15.80;;;10.90;90.10;;;;;;5065707;28;20473;-68
2022/09/18 03:45:45;;;;;;;14.27;13.57;;;10.90;89.70;;;;;;5064972;28;20938;-68
2022/09/18 03:48:12;;;;;;;14.13;13.43;;;10.80;90.10;;;;;;5064327;28;20454;-68
2022/09/18 03:50:39;;;;;;;15.00;14.20;;;10.80;90.60;;;;;;5064902;28;20667;-68
2022/09/18 03:53:08;;;;;;;15.17;14.10;;;10.80;90.80;;;;;;5070212;28;20485;-68
2022/09/18 03:55:35;;;;;;;15.37;14.47;;;10.80;91.10;;;;;;5065123;28;20495;-68
2022/09/18 03:58:02;;;;;;;14.57;13.90;;;10.80;91.10;;;;;;5063947;28;20477;-69
2022/09/18 04:00:29;;;;;;;14.70;13.70;;;10.80;90.80;;;;;;5064395;28;20469;-68
2022/09/18 04:02:56;;;;;;;14.20;13.37;;;10.80;90.80;;;;;;5066182;28;20494;-68
2022/09/18 04:05:23;;;;;;;13.50;12.80;;;10.80;90.80;;;;;;5065390;28;20462;-68
2022/09/18 04:07:50;;;;;;;15.20;14.40;;;10.90;90.50;;;;;;5064639;28;20960;-68
2022/09/18 04:10:21;;;;;;;14.87;13.77;;;10.90;90.40;;;;;;5066050;28;20446;-68
2022/09/18 04:12:48;;;;;;;14.30;13.60;;;10.90;90.40;;;;;;5067861;28;21051;-68
2022/09/18 04:15:16;;;;;;;14.73;13.87;;;10.90;90.50;;;;;;5066623;28;20456;-68
2022/09/18 04:17:43;;;;;;;15.50;14.80;;;10.90;90.70;;;;;;5061871;28;20955;-68
2022/09/18 04:20:11;;;;;;;14.33;13.73;;;10.90;90.50;;;;;;5063259;28;20449;-68
2022/09/18 04:22:37;;;;;;;13.43;12.73;;;10.90;90.70;;;;;;5075767;28;20469;-68
2022/09/18 04:25:05;;;;;;;13.70;12.97;;;10.90;90.80;;;;;;5065662;28;20456;-69
2022/09/18 04:27:35;;;;;;;13.20;12.70;;;10.90;90.70;;;;;;5063024;28;20465;-68
2022/09/18 04:30:02;;;;;;;13.97;13.37;;;10.80;91.00;;;;;;5062445;28;20449;-68
2022/09/18 04:32:28;;;;;;;17.63;16.60;;;10.80;91.10;;;;;;5055307;28;20843;-68
2022/09/18 04:34:55;;;;;;;13.73;12.93;;;10.80;91.10;;;;;;5065925;28;20457;-68
2022/09/18 04:37:22;;;;;;;18.73;17.87;;;10.80;91.30;;;;;;5073767;28;20455;-68
2022/09/18 04:39:49;;;;;;;13.70;13.10;;;10.90;91.10;;;;;;5061517;28;20460;-68
2022/09/18 04:42:16;;;;;;;15.63;14.83;;;10.90;90.90;;;;;;5058175;28;20991;-68
2022/09/18 04:44:44;;;;;;;14.00;13.30;;;10.90;91.20;;;;;;5062199;28;20470;-68
2022/09/18 04:47:11;;;;;;;14.47;13.77;;;10.90;91.20;;;;;;5062117;28;20456;-68
2022/09/18 04:49:38;;;;;;;13.27;12.67;;;10.90;91.30;;;;;;5064295;28;20499;-69
2022/09/18 04:52:05;;;;;;;14.37;13.50;;;10.90;90.80;;;;;;5065774;28;20457;-70
2022/09/18 04:54:32;;;;;;;15.03;14.23;;;10.90;90.90;;;;;;5064727;28;20556;-70
2022/09/18 04:56:59;;;;;;;14.90;14.10;;;10.90;90.90;;;;;;5069556;28;20462;-69
2022/09/18 04:59:25;;;;;;;13.75;12.88;;;10.90;91.00;;;;;;5066895;28;20470;-68
2022/09/18 05:01:54;;;;;;;15.20;14.50;;;10.90;91.20;;;;;;5066776;28;20202;-68
2022/09/18 05:04:20;;;;;;;18.50;17.80;;;10.90;91.10;;;;;;5067341;28;20470;-70
2022/09/18 05:06:47;;;;;;;32.17;30.63;;;10.90;91.30;;;;;;5069269;28;20475;-69
2022/09/18 05:09:14;;;;;;;15.60;14.90;;;10.90;90.90;;;;;;5063646;28;20913;-70
2022/09/18 05:11:41;;;;;;;14.70;14.00;;;10.90;90.80;;;;;;5070109;28;20463;-70
2022/09/18 05:14:08;;;;;;;13.97;13.27;;;10.90;91.00;;;;;;5067408;28;20484;-70
2022/09/18 05:16:35;;;;;;;14.93;14.23;;;10.90;90.70;;;;;;5068914;28;20461;-70
2022/09/18 05:19:03;;;;;;;15.27;14.27;;;10.90;90.80;;;;;;5066626;28;20473;-69
2022/09/18 05:21:30;;;;;;;14.23;13.27;;;10.90;90.90;;;;;;5071074;28;20468;-69
2022/09/18 05:23:57;;;;;;;14.50;13.80;;;11.00;90.80;;;;;;5062271;28;20466;-70
2022/09/18 05:26:25;;;;;;;16.27;15.47;;;11.10;90.60;;;;;;5065814;28;20864;-70
2022/09/18 05:28:52;;;;;;;14.70;14.00;;;11.00;90.30;;;;;;5061804;28;20465;-70
2022/09/18 05:31:19;;;;;;;16.77;15.97;;;11.00;90.30;;;;;;5069411;28;20445;-70
2022/09/18 05:33:46;;;;;;;29.07;27.67;;;11.00;90.40;;;;;;5066736;28;20836;-69
2022/09/18 05:36:14;;;;;;;15.33;14.53;;;11.10;90.20;;;;;;5064963;28;21281;-70
2022/09/18 05:38:41;;;;;;;16.13;15.43;;;11.00;90.10;;;;;;5064805;28;20467;-70
2022/09/18 05:41:08;;;;;;;14.87;14.07;;;11.00;90.30;;;;;;5072975;28;20556;-70
2022/09/18 05:43:35;;;;;;;14.10;13.50;;;10.90;90.90;;;;;;5073732;28;20475;-70
2022/09/18 05:46:02;;;;;;;14.93;14.10;;;11.00;91.00;;;;;;5068798;28;20466;-70
2022/09/18 05:48:29;;;;;;;15.50;14.70;;;11.10;90.70;;;;;;5069549;28;20977;-70
2022/09/18 05:50:56;;;;;;;14.40;13.70;;;11.10;90.50;;;;;;5067948;28;20449;-69
2022/09/18 05:53:25;;;;;;;15.07;14.37;;;11.20;90.30;;;;;;5067908;28;20487;-73
2022/09/18 05:55:52;;;;;;;15.70;14.80;;;11.20;90.30;;;;;;5067279;28;20470;-75
2022/09/18 05:58:20;;;;;;;16.13;15.33;;;11.10;90.30;;;;;;5067285;28;20969;-74
2022/09/18 06:00:49;;;;;;;17.00;16.30;;;11.20;90.70;;;;;;5065405;28;20545;-70
2022/09/18 06:03:17;;;;;;;17.00;16.30;;;11.20;90.50;;;;;;5071097;28;20548;-70
2022/09/18 06:05:51;;;;;;;15.83;14.93;;;11.30;90.60;;;;;;5066832;28;20452;-69
2022/09/18 06:08:18;;;;;;;16.30;15.60;;;11.30;90.30;;;;;;5066084;28;20464;-69
2022/09/18 06:10:47;;;;;;;16.17;15.17;;;11.30;90.20;;;;;;5067562;28;20965;-69
2022/09/18 06:13:16;;;;;;;29.33;27.97;;;11.40;89.90;;;;;;5069001;28;20482;-68
2022/09/18 06:15:45;;;;;;;14.60;14.00;;;11.40;90.00;;;;;;5067161;28;20466;-68
2022/09/18 06:18:13;;;;;;;15.13;14.33;;;11.40;90.20;;;;;;5063470;28;20457;-68
2022/09/18 06:20:40;;;;;;;14.23;13.53;;;11.40;90.00;;;;;;5069015;28;21016;-68
2022/09/18 06:23:07;;;;;;;15.60;14.80;;;11.40;90.00;;;;;;5068575;28;20485;-69
2022/09/18 06:25:34;;;;;;;19.67;18.40;;;11.40;90.30;;;;;;5067725;28;20466;-69
2022/09/18 06:28:05;;;;;;;16.77;15.60;;;11.40;90.30;;;;;;5066562;28;20870;-70
2022/09/18 06:30:33;;;;;;;27.03;25.77;;;11.40;90.40;;;;;;5064665;28;20543;-70
2022/09/18 06:33:01;;;;;;;16.73;15.83;;;11.40;90.50;;;;;;5072533;28;21015;-68
2022/09/18 06:35:28;;;;;;;20.33;19.43;;;11.40;90.40;;;;;;5066171;28;20476;-69
2022/09/18 06:37:55;;;;;;;15.47;14.77;;;11.50;90.40;;;;;;5065748;28;20458;-68
2022/09/18 06:40:22;;;;;;;19.20;18.30;;;11.50;90.30;;;;;;5068945;28;20458;-69
2022/09/18 06:42:55;;;;;;;15.70;15.00;;;11.50;90.60;;;;;;5067288;28;20559;-68
2022/09/18 06:45:23;;;;;;;15.30;14.60;;;11.60;90.40;;;;;;5067759;28;20460;-67
2022/09/18 06:47:53;;;;;;;16.73;15.83;;;11.70;89.80;;;;;;5064613;28;20454;-69
2022/09/18 06:50:20;;;;;;;15.80;15.03;;;11.70;89.70;;;;;;5067287;28;20898;-72
2022/09/18 06:52:47;;;;;;;15.00;14.13;;;11.70;90.00;;;;;;5072987;28;20474;-71
2022/09/18 06:55:14;;;;;;;14.90;14.20;;;11.80;89.80;;;;;;5063885;28;20684;-70
2022/09/18 06:57:41;;;;;;;18.43;17.63;;;11.80;90.10;;;;;;5063285;28;20467;-69
2022/09/18 07:00:09;;;;;;;15.93;15.10;;;11.90;90.00;;;;;;5068316;28;20536;-69
2022/09/18 07:02:37;;;;;;;20.13;19.03;;;12.00;89.30;;;;;;5065998;28;20504;-69
2022/09/18 07:05:05;;;;;;;17.00;16.13;;;12.00;89.40;;;;;;5067809;28;20456;-69
2022/09/18 07:07:31;;;;;;;17.97;17.10;;;12.10;89.50;;;;;;5061342;28;20462;-70
2022/09/18 07:09:58;;;;;;;24.67;23.57;;;12.20;89.30;;;;;;5067582;28;20868;-70
2022/09/18 07:12:28;;;;;;;17.57;16.77;;;12.30;88.80;;;;;;5061024;28;20481;-69
2022/09/18 07:14:55;;;;;;;20.90;19.63;;;12.40;88.50;;;;;;5067584;28;20528;-68
2022/09/18 07:17:22;;;;;;;18.90;17.87;;;12.50;88.70;;;;;;5064398;28;20458;-68
2022/09/18 07:19:50;;;;;;;26.57;25.27;;;12.50;88.30;;;;;;5062607;28;20990;-69
2022/09/18 07:22:16;;;;;;;32.50;30.90;;;12.50;87.60;;;;;;5065628;28;20477;-70
2022/09/18 07:24:43;;;;;;;19.33;18.30;;;12.50;87.40;;;;;;5065841;28;20464;-70
2022/09/18 07:27:10;;;;;;;29.40;28.10;;;12.50;87.40;;;;;;5064721;28;20469;-69
2022/09/18 07:29:38;;;;;;;18.20;17.20;;;12.50;87.60;;;;;;5062242;28;20453;-68
2022/09/18 07:32:05;;;;;;;17.17;16.20;;;12.60;87.40;;;;;;5074780;28;20456;-70
2022/09/18 07:34:32;;;;;;;22.00;20.67;;;12.60;87.30;;;;;;5060177;28;20482;-70
2022/09/18 07:37:00;;;;;;;22.10;21.10;;;12.70;86.70;;;;;;5058788;28;20465;-69
2022/09/18 07:39:27;;;;;;;22.60;21.40;;;12.80;86.60;;;;;;5071576;28;20464;-69
2022/09/18 07:41:54;;;;;;;19.00;18.10;;;12.90;86.20;;;;;;5073430;28;20811;-69
2022/09/18 07:44:21;;;;;;;20.47;19.57;;;12.90;85.60;;;;;;5067517;28;20465;-69
2022/09/18 07:46:49;;;;;;;18.23;17.33;;;12.90;85.30;;;;;;5071439;28;20992;-69
2022/09/18 07:49:16;;;;;;;26.07;24.87;;;13.00;85.20;;;;;;5066003;28;20540;-69
2022/09/18 07:51:43;;;;;;;26.40;25.20;;;13.10;85.00;;;;;;5074326;28;20461;-69
2022/09/18 07:54:11;;;;;;;21.17;20.07;;;13.00;84.60;;;;;;5071896;28;20509;-69
2022/09/18 07:56:38;;;;;;;21.03;19.83;;;13.10;84.80;;;;;;5060028;28;20458;-69
2022/09/18 07:59:05;;;;;;;35.23;33.37;;;13.20;84.80;;;;;;5067185;28;20548;-70
2022/09/18 08:01:33;;;;;;;22.97;21.07;;;13.10;84.00;;;;;;5061748;28;20468;-71
2022/09/18 08:04:02;;;;;;;23.77;22.67;;;13.10;84.60;;;;;;5062969;28;20466;-70
2022/09/18 08:06:30;;;;;;;27.13;25.80;;;13.20;83.40;;;;;;5068807;28;20465;-68
2022/09/18 08:08:56;;;;;;;23.23;21.93;;;13.20;83.20;;;;;;5062287;28;20473;-69
2022/09/18 08:11:25;;;;;;;30.23;28.73;;;13.20;82.60;;;;;;5060937;28;21171;-68
2022/09/18 08:13:54;;;;;;;20.50;19.50;;;13.20;83.40;;;;;;5068131;28;20475;-69
2022/09/18 08:16:21;;;;;;;22.57;21.53;;;13.30;82.60;;;;;;5074528;28;20859;-68
2022/09/18 08:18:48;;;;;;;22.20;21.10;;;13.40;81.70;;;;;;5060093;28;21118;-68
2022/09/18 08:21:15;;;;;;;28.73;27.23;;;13.40;82.10;;;;;;5062226;28;20475;-68
2022/09/18 08:23:42;;;;;;;20.80;19.70;;;13.40;81.90;;;;;;5070691;28;20478;-68
2022/09/18 08:26:08;;;;;;;23.87;22.67;;;13.40;82.00;;;;;;5065042;28;20977;-68
2022/09/18 08:28:37;;;;;;;26.40;25.00;;;13.50;81.70;;;;;;5074755;28;20459;-68
2022/09/18 08:31:04;;;;;;;28.13;26.83;;;13.50;81.70;;;;;;5066151;28;20448;-67
2022/09/18 08:33:30;;;;;;;25.37;24.17;;;13.50;81.70;;;;;;5069732;28;21003;-68
2022/09/18 08:35:57;;;;;;;25.70;24.40;;;13.60;81.10;;;;;;5064474;28;20458;-68
2022/09/18 08:38:24;;;;;;;25.20;23.80;;;13.80;81.00;;;;;;5065938;28;20458;-68
2022/09/18 08:41:16;;;;;;;22.67;21.63;;;13.90;80.20;;;;;;5072387;28;20465;-68
2022/09/18 08:43:56;;;;;;;23.87;22.57;;;13.90;79.90;;;;;;5066182;28;20469;-67
2022/09/18 08:46:28;;;;;;;26.50;25.10;;;13.90;79.80;;;;;;5068014;28;20542;-68
2022/09/18 08:49:04;;;;;;;25.20;23.60;;;13.90;79.60;;;;;;5065913;28;20454;-67
2022/09/18 08:51:37;;;;;;;25.00;23.80;;;14.10;78.90;;;;;;5073521;28;20450;-67
2022/09/18 08:54:19;;;;;;;25.33;24.07;;;14.30;78.40;;;;;;5066091;28;20573;-68
2022/09/18 08:56:47;;;;;;;27.97;26.37;;;14.50;78.30;;;;;;5065107;28;20997;-68
2022/09/18 08:59:19;;;;;;;24.10;22.73;;;14.60;77.70;;;;;;5075603;28;20464;-68
2022/09/18 09:01:55;;;;;;;22.23;21.20;;;14.80;77.20;;;;;;5074514;28;20523;-68
2022/09/18 09:04:27;;;;;;;24.90;23.70;;;14.70;76.30;;;;;;5070152;28;20510;-70
2022/09/18 09:07:09;;;;;;;28.50;27.10;;;14.70;76.70;;;;;;5066667;28;20475;-70
2022/09/18 09:09:46;;;;;;;29.97;28.33;;;14.70;77.10;;;;;;5062213;28;20492;-69
2022/09/18 09:12:24;;;;;;;25.90;24.50;;;14.50;77.50;;;;;;5074540;28;20475;-70
2022/09/18 09:15:30;;;;;;;27.77;26.47;;;14.30;77.40;;;;;;5078859;28;20477;-70
2022/09/18 09:18:09;;;;;;;29.47;27.87;;;14.30;77.80;;;;;;5001208;28;20476;-72
2022/09/18 09:20:45;;;;;;;28.17;26.87;;;14.30;78.20;;;;;;5002492;28;21010;-71
2022/09/18 09:23:19;;;;;;;30.23;28.83;;;14.20;78.50;;;;;;5039327;28;20523;-70
2022/09/18 09:25:58;;;;;;;31.77;30.07;;;14.30;78.60;;;;;;5067083;28;20457;-72
2022/09/18 09:28:29;;;;;;;26.80;25.50;;;14.40;77.50;;;;;;5060278;28;20553;-74
2022/09/18 09:31:03;;;;;;;34.60;32.87;;;14.40;77.50;;;;;;5069784;28;20966;-71
2022/09/18 09:33:35;;;;;;;33.00;31.30;;;14.40;77.50;;;;;;5061456;28;20488;-70
2022/09/18 09:36:07;;;;;;;27.53;26.20;;;14.40;77.40;;;;;;5068108;28;20484;-71
2022/09/18 09:38:42;;;;;;;31.53;29.67;;;14.40;77.30;;;;;;5067683;28;20454;-70
2022/09/18 09:41:17;;;;;;;26.33;25.03;;;14.50;76.90;;;;;;5068360;28;20456;-71
2022/09/18 09:43:53;;;;;;;26.23;24.83;;;14.50;76.20;;;;;;5079234;28;21041;-70
2022/09/18 09:46:39;;;;;;;30.50;28.80;;;14.40;77.00;;;;;;5066224;28;21242;-71
2022/09/18 09:49:13;;;;;;;37.23;35.47;;;14.50;77.00;;;;;;5081856;28;20541;-70
2022/09/18 09:51:53;;;;;;;24.90;23.60;;;14.70;76.00;;;;;;5068264;28;20447;-72
2022/09/18 09:54:20;;;;;;;29.50;28.00;;;14.80;75.60;;;;;;5069565;28;21011;-71
2022/09/18 09:56:54;;;;;;;25.27;24.07;;;14.80;75.30;;;;;;5064556;28;20463;-71
2022/09/18 09:59:26;;;;;;;27.20;25.90;;;14.90;76.10;;;;;;5058677;28;20461;-78
2022/09/18 10:02:03;;;;;;;27.10;25.90;;;15.10;75.10;;;;;;5066037;28;20462;-74
2022/09/18 10:04:37;;;;;;;28.70;27.20;;;15.30;74.50;;;;;;5067034;28;21049;-70
2022/09/18 10:07:13;;;;;;;25.70;24.60;;;15.50;73.50;;;;;;5065971;28;20454;-70
2022/09/18 10:09:48;;;;;;;46.10;43.57;;;15.60;73.80;;;;;;5079069;28;20453;-70
2022/09/18 10:12:23;;;;;;;30.10;28.47;;;15.80;72.30;;;;;;5067611;28;20469;-70
2022/09/18 10:14:53;;;;;;;28.70;27.20;;;15.80;71.70;;;;;;5068720;28;20476;-70
2022/09/18 10:17:23;;;;;;;30.60;29.00;;;16.10;71.20;;;;;;5064998;28;20485;-70
2022/09/18 10:19:50;;;;;;;28.23;26.83;;;16.30;70.70;;;;;;5075359;28;20805;-71
2022/09/18 10:22:21;;;;;;;32.03;30.23;;;16.50;70.20;;;;;;5072646;28;20481;-70
2022/09/18 10:24:55;;;;;;;29.23;27.60;;;16.50;69.40;;;;;;5071741;28;20454;-71
2022/09/18 10:27:22;;;;;;;33.03;30.83;;;16.40;69.70;;;;;;5067208;28;20460;-70
2022/09/18 10:29:49;;;;;;;29.47;27.63;;;16.40;69.00;;;;;;5065824;28;20484;-70
2022/09/18 10:32:33;;;;;;;29.23;27.63;;;16.50;69.30;;;;;;5061820;28;20497;-70
2022/09/18 10:35:00;;;;;;;33.90;32.20;;;16.60;67.20;;;;;;5067619;28;21080;-70
2022/09/18 10:37:39;;;;;;;27.90;26.50;;;16.70;68.20;;;;;;5066150;28;20943;-70
2022/09/18 10:40:26;;;;;;;26.50;25.00;;;16.80;65.50;;;;;;5064240;28;20974;-70
2022/09/18 10:42:54;;;;;;;32.33;30.73;;;16.80;65.20;;;;;;5075248;28;20473;-71
2022/09/18 10:45:23;;;;;;;35.00;33.30;;;16.50;65.80;;;;;;5065954;28;20592;-69
2022/09/18 10:48:05;;;;;;;31.93;30.50;;;16.30;66.20;;;;;;5065781;28;20815;-72
2022/09/18 10:50:32;;;;;;;30.57;29.00;;;16.30;66.10;;;;;;5062157;28;20952;-70
2022/09/18 10:53:20;;;;;;;32.10;30.50;;;16.40;64.80;;;;;;5075187;28;20602;-70
2022/09/18 10:55:51;;;;;;;27.83;26.33;;;16.40;66.30;;;;;;5065792;28;20481;-70
2022/09/18 10:58:26;;;;;;;29.37;27.90;;;16.80;65.40;;;;;;5060326;28;20525;-70
2022/09/18 11:00:56;;;;;;;33.37;31.10;;;17.00;62.80;;;;;;5072086;28;20822;-70
2022/09/18 11:03:40;;;;;;;27.53;26.23;;;17.20;62.60;;;;;;5076600;28;20536;-70
2022/09/18 11:06:14;;;;;;;33.17;31.47;;;17.40;62.70;;;;;;5056778;28;20952;-71
2022/09/18 11:08:44;;;;;;;29.77;27.97;;;17.20;59.30;;;;;;5064190;28;20461;-70
2022/09/18 11:11:19;;;;;;;42.67;40.30;;;17.00;59.60;;;;;;5064219;28;20458;-70
2022/09/18 11:13:51;;;;;;;31.87;30.10;;;16.80;60.10;;;;;;5063088;28;20473;-70
2022/09/18 11:16:23;;;;;;;29.53;28.00;;;16.80;60.60;;;;;;5068807;28;20995;-70
2022/09/18 11:19:04;;;;;;;34.80;33.00;;;16.80;60.00;;;;;;5069061;28;20456;-72
2022/09/18 11:21:31;;;;;;;26.57;25.03;;;16.80;60.70;;;;;;5066141;28;20769;-71
2022/09/18 11:24:06;;;;;;;31.80;30.27;;;16.90;60.80;;;;;;5066010;28;20552;-69
2022/09/18 11:26:33;;;;;;;30.00;28.60;;;17.00;60.50;;;;;;5060725;28;20973;-70
2022/09/18 11:29:02;;;;;;;30.37;28.87;;;16.90;60.10;;;;;;5060095;28;20459;-69
2022/09/18 11:31:41;;;;;;;32.27;30.47;;;16.80;61.30;;;;;;5066447;28;20541;-69
2022/09/18 11:34:20;;;;;;;38.20;36.03;;;16.80;59.70;;;;;;5064836;28;20485;-70
2022/09/18 11:36:49;;;;;;;30.67;29.10;;;16.80;59.30;;;;;;5064147;28;20482;-73
2022/09/18 11:39:23;;;;;;;38.30;35.83;;;17.00;59.00;;;;;;5068197;28;20454;-69
2022/09/18 11:41:51;;;;;;;28.73;27.23;;;16.90;57.90;;;;;;5063550;28;20464;-69
2022/09/18 11:44:22;;;;;;;35.67;33.80;;;16.70;58.50;;;;;;5065296;28;20454;-69
2022/09/18 11:47:04;;;;;;;28.57;27.27;;;16.80;59.40;;;;;;5063982;28;20457;-68
2022/09/18 11:49:37;;;;;;;29.30;27.90;;;17.00;58.00;;;;;;5068392;28;20466;-68
2022/09/18 11:52:12;;;;;;;28.97;27.67;;;16.80;58.00;;;;;;5065296;28;20485;-69
2022/09/18 11:54:43;;;;;;;29.37;27.97;;;16.80;58.50;;;;;;5064283;28;20966;-69
2022/09/18 11:57:16;;;;;;;30.93;29.43;;;17.00;58.80;;;;;;5063908;28;20534;-69
2022/09/18 11:59:48;;;;;;;40.17;37.47;;;17.20;57.90;;;;;;5056590;28;20465;-69
2022/09/18 12:02:29;;;;;;;32.70;31.00;;;17.40;56.60;;;;;;5065074;28;20499;-69
2022/09/18 12:05:04;;;;;;;28.07;26.80;;;17.50;55.70;;;;;;5065931;28;20447;-69
2022/09/18 12:07:37;;;;;;;29.50;27.83;;;17.20;55.50;;;;;;5073766;28;20648;-69
2022/09/18 12:10:16;;;;;;;36.30;34.47;;;17.20;55.90;;;;;;5076134;28;20936;-68
2022/09/18 12:12:49;;;;;;;29.67;28.27;;;17.30;55.40;;;;;;5061564;28;20481;-68
2022/09/18 12:15:20;;;;;;;33.57;31.80;;;17.40;56.10;;;;;;5069211;28;21002;-69
2022/09/18 12:17:52;;;;;;;29.73;28.33;;;17.60;55.70;;;;;;5078548;28;20457;-69
2022/09/18 12:20:25;;;;;;;29.00;27.50;;;17.90;55.80;;;;;;5068768;28;20477;-69
2022/09/18 12:22:55;;;;;;;27.47;26.07;;;18.10;55.00;;;;;;5068794;28;20484;-69
2022/09/18 12:25:29;;;;;;;28.40;26.90;;;18.10;53.90;;;;;;5065463;28;20502;-69
2022/09/18 12:28:03;;;;;;;32.40;30.80;;;18.00;55.50;;;;;;5055051;27;20466;-69
2022/09/18 12:30:38;;;;;;;30.37;28.90;;;18.20;55.20;;;;;;5027582;28;20463;-69
2022/09/18 12:33:18;;;;;;;39.57;37.70;;;18.10;54.30;;;;;;5022809;28;20474;-70
2022/09/18 12:36:05;;;;;;;34.80;33.13;;;18.00;53.50;;;;;;5028580;28;20558;-69
2022/09/18 12:38:49;;;;;;;35.27;33.57;;;17.80;52.70;;;;;;5032957;28;20466;-69
2022/09/18 12:41:31;;;;;;;26.30;25.10;;;17.90;52.50;;;;;;5023017;28;20448;-70
2022/09/18 12:44:25;;;;;;;34.70;33.00;;;17.80;51.70;;;;;;5028649;28;20815;-70
2022/09/18 12:47:08;;;;;;;30.97;29.37;;;17.60;52.40;;;;;;5027822;28;20456;-69